createdAt,value
2023-01-20T00:01:39.054Z,5.29
2023-01-20T00:04:07.143Z,5.29
2023-01-20T00:06:34.036Z,5.27
2023-01-20T00:09:02.055Z,5.26
2023-01-20T00:11:29.660Z,5.26
2023-01-20T00:13:58.520Z,5.25
2023-01-20T00:16:25.754Z,5.24
2023-01-20T00:18:52.809Z,5.22
2023-01-20T00:21:19.848Z,5.19
2023-01-20T00:23:47.204Z,5.17
2023-01-20T00:26:19.412Z,5.14
2023-01-20T00:28:47.262Z,5.15
2023-01-20T00:31:15.659Z,5.17
2023-01-20T00:33:44.123Z,5.18
2023-01-20T00:36:12.377Z,5.19
2023-01-20T00:38:40.781Z,5.17
2023-01-20T00:41:08.513Z,5.17
2023-01-20T00:43:36.491Z,5.18
2023-01-20T00:46:04.317Z,5.19
2023-01-20T00:48:31.816Z,5.17
2023-01-20T00:50:59.361Z,5.16
2023-01-20T00:53:29.302Z,5.14
2023-01-20T00:55:56.285Z,5.13
2023-01-20T00:58:23.196Z,5.13
2023-01-20T01:00:51.128Z,5.14
2023-01-20T01:03:18.394Z,5.17
2023-01-20T01:05:45.430Z,5.18
2023-01-20T01:08:12.583Z,5.16
2023-01-20T01:10:40.739Z,5.12
2023-01-20T01:13:09.132Z,5.10
2023-01-20T01:15:36.385Z,5.07
2023-01-20T01:18:03.742Z,5.02
2023-01-20T01:20:31.300Z,4.98
2023-01-20T01:22:58.685Z,4.96
2023-01-20T01:25:26.112Z,4.96
2023-01-20T01:27:53.465Z,4.98
2023-01-20T01:30:20.971Z,4.99
2023-01-20T01:32:48.610Z,5.00
2023-01-20T01:35:16.466Z,4.99
2023-01-20T01:37:44.117Z,4.97
2023-01-20T01:40:12.137Z,4.95
2023-01-20T01:42:41.345Z,4.93
2023-01-20T01:45:11.982Z,4.93
2023-01-20T01:47:53.499Z,4.93
2023-01-20T01:50:33.448Z,4.91
2023-01-20T01:53:01.013Z,4.89
2023-01-20T01:55:30.817Z,4.88
2023-01-20T01:57:59.000Z,4.88
2023-01-20T02:00:26.858Z,4.91
2023-01-20T02:02:54.306Z,4.96
2023-01-20T02:05:22.940Z,5.01
2023-01-20T02:07:50.524Z,5.04
2023-01-20T02:10:18.420Z,5.04
2023-01-20T02:12:47.586Z,5.04
2023-01-20T02:15:15.652Z,5.04
2023-01-20T02:17:46.729Z,5.05
2023-01-20T02:20:39.989Z,5.06
2023-01-20T02:23:35.504Z,5.07
2023-01-20T02:26:41.437Z,5.10
2023-01-20T02:29:33.392Z,5.14
2023-01-20T02:32:09.757Z,5.14
2023-01-20T02:34:42.914Z,5.12
2023-01-20T02:37:16.067Z,5.10
2023-01-20T02:40:01.840Z,5.07
2023-01-20T02:42:41.432Z,5.05
2023-01-20T02:45:20.494Z,5.02
2023-01-20T02:47:59.241Z,4.98
2023-01-20T02:50:28.104Z,4.94
2023-01-20T02:52:57.353Z,4.91
2023-01-20T02:55:37.173Z,4.91
2023-01-20T02:58:11.425Z,4.92
2023-01-20T03:00:47.584Z,4.93
2023-01-20T03:03:18.048Z,4.95
2023-01-20T03:05:49.742Z,4.97
2023-01-20T03:08:17.479Z,4.98
2023-01-20T03:10:45.341Z,4.98
2023-01-20T03:13:50.303Z,5.01
2023-01-20T03:16:19.545Z,5.06
2023-01-20T03:18:47.342Z,5.09
2023-01-20T03:21:14.933Z,5.08
2023-01-20T03:23:47.539Z,5.05
2023-01-20T03:26:17.342Z,5.04
2023-01-20T03:28:45.770Z,5.06
2023-01-20T03:31:18.742Z,5.05
2023-01-20T03:33:47.037Z,5.03
2023-01-20T03:36:14.900Z,5.01
2023-01-20T03:38:44.097Z,4.99
2023-01-20T03:41:21.101Z,5.00
2023-01-20T03:43:59.796Z,5.01
2023-01-20T03:46:40.563Z,5.00
2023-01-20T03:49:13.346Z,4.97
2023-01-20T03:51:55.421Z,4.94
2023-01-20T03:54:24.821Z,4.88
2023-01-20T03:57:08.893Z,4.84
2023-01-20T03:59:38.322Z,4.82
2023-01-20T04:02:07.039Z,4.79
2023-01-20T04:04:36.867Z,4.75
2023-01-20T04:07:06.191Z,4.72
2023-01-20T04:09:36.063Z,4.71
2023-01-20T04:12:04.074Z,4.72
2023-01-20T04:14:31.737Z,4.73
2023-01-20T04:16:59.316Z,4.70
2023-01-20T04:19:27.569Z,4.67
2023-01-20T04:22:13.158Z,4.63
2023-01-20T04:24:53.519Z,4.60
2023-01-20T04:27:21.178Z,4.57
2023-01-20T04:29:48.628Z,4.56
2023-01-20T04:32:16.907Z,4.55
2023-01-20T04:34:44.670Z,4.55
2023-01-20T04:37:12.432Z,4.53
2023-01-20T04:39:40.195Z,4.51
2023-01-20T04:42:07.889Z,4.51
2023-01-20T04:44:35.724Z,4.50
2023-01-20T04:47:03.384Z,4.51
2023-01-20T04:49:31.076Z,4.53
2023-01-20T04:51:58.282Z,4.53
2023-01-20T04:54:25.760Z,4.53
2023-01-20T04:56:53.322Z,4.56
2023-01-20T04:59:20.775Z,4.56
2023-01-20T05:01:48.511Z,4.56
2023-01-20T05:04:16.411Z,4.53
2023-01-20T05:06:45.307Z,4.49
2023-01-20T05:09:13.700Z,4.47
2023-01-20T05:11:42.161Z,4.44
2023-01-20T05:14:11.356Z,4.44
2023-01-20T05:16:38.906Z,4.44
2023-01-20T05:19:06.776Z,4.44
2023-01-20T05:21:34.538Z,4.44
2023-01-20T05:24:02.144Z,4.44
2023-01-20T05:26:29.967Z,4.44
2023-01-20T05:28:57.650Z,4.44
2023-01-20T05:31:25.413Z,4.43
2023-01-20T05:33:53.050Z,4.41
2023-01-20T05:36:20.606Z,4.38
2023-01-20T05:38:48.167Z,4.35
2023-01-20T05:41:15.837Z,4.33
2023-01-20T05:43:43.185Z,4.31
2023-01-20T05:46:10.868Z,4.27
2023-01-20T05:48:38.712Z,4.27
2023-01-20T05:51:08.528Z,4.26
2023-01-20T05:53:36.285Z,4.28
2023-01-20T05:56:05.395Z,4.29
2023-01-20T05:58:32.889Z,4.30
2023-01-20T06:01:07.732Z,4.33
2023-01-20T06:03:35.681Z,4.37
2023-01-20T06:06:04.936Z,4.40
2023-01-20T06:08:32.611Z,4.40
2023-01-20T06:11:00.050Z,4.40
2023-01-20T06:13:27.614Z,4.39
2023-01-20T06:15:55.613Z,4.37
2023-01-20T06:18:23.445Z,4.37
2023-01-20T06:20:51.025Z,4.35
2023-01-20T06:42:54.948Z,4.65
2023-01-20T06:45:22.420Z,4.66
2023-01-20T06:47:49.890Z,4.69
2023-01-20T06:50:17.513Z,4.74
2023-01-20T06:52:44.995Z,4.79
2023-01-20T06:55:13.045Z,4.82
2023-01-20T06:57:41.012Z,4.82
2023-01-20T07:00:09.283Z,4.86
2023-01-20T07:02:37.003Z,4.92
2023-01-20T07:05:08.401Z,4.98
2023-01-20T07:07:36.067Z,5.00
2023-01-20T07:10:04.132Z,5.01
2023-01-20T07:12:31.683Z,5.03
2023-01-20T07:14:59.358Z,5.05
2023-01-20T07:17:27.109Z,5.05
2023-01-20T11:45:19.867Z,19.90
2023-01-20T11:48:05.077Z,20.26
2023-01-20T11:50:37.188Z,20.28
2023-01-20T11:53:24.345Z,20.29
2023-01-20T11:55:54.004Z,20.44
2023-01-20T11:58:49.155Z,20.51
2023-01-20T12:01:28.920Z,20.58
2023-01-20T12:04:13.000Z,20.71
2023-01-20T12:06:52.094Z,20.57
2023-01-20T12:09:22.547Z,20.36
2023-01-20T12:11:53.924Z,20.16
2023-01-20T12:14:26.024Z,19.99
2023-01-20T12:17:14.990Z,19.95
2023-01-20T12:19:58.212Z,19.84
2023-01-20T12:22:38.781Z,19.64
2023-01-20T12:25:24.975Z,19.54
2023-01-20T12:28:04.251Z,19.34
2023-01-20T12:30:46.856Z,19.13
2023-01-20T12:33:18.791Z,18.97
2023-01-20T12:36:26.171Z,18.90
2023-01-20T12:38:58.274Z,18.95
2023-01-20T12:42:07.177Z,18.99
2023-01-20T12:44:47.731Z,18.97
2023-01-20T12:47:36.788Z,18.92
2023-01-20T12:50:22.576Z,18.99
2023-01-20T12:53:02.528Z,18.97
2023-01-20T12:55:41.582Z,18.69
2023-01-20T12:58:15.977Z,18.41
2023-01-20T13:00:49.420Z,18.30
2023-01-20T13:03:28.925Z,18.34
2023-01-20T13:06:14.408Z,18.37
2023-01-20T13:08:50.959Z,18.33
2023-01-20T13:11:32.854Z,18.25
2023-01-20T13:14:14.860Z,18.07
2023-01-20T13:17:13.028Z,17.59
2023-01-20T13:19:41.777Z,16.81
2023-01-20T13:22:16.243Z,16.03
2023-01-20T13:24:45.541Z,15.22
2023-01-20T13:27:14.226Z,14.55
2023-01-20T13:29:43.599Z,13.95
2023-01-20T13:32:33.711Z,13.43
2023-01-20T13:35:02.810Z,12.84
2023-01-20T13:37:37.832Z,12.38
2023-01-20T13:40:32.433Z,12.02
2023-01-20T13:43:00.099Z,11.66
2023-01-20T13:45:27.978Z,11.37
2023-01-20T13:48:08.540Z,11.09
2023-01-20T13:50:40.895Z,10.80
2023-01-20T13:53:11.023Z,10.59
2023-01-20T13:55:45.332Z,10.41
2023-01-20T13:58:25.901Z,10.25
2023-01-20T14:00:57.242Z,10.08
2023-01-20T14:03:32.530Z,9.91
2023-01-20T14:06:01.950Z,9.76
2023-01-20T14:08:41.255Z,9.61
2023-01-20T14:11:15.452Z,9.48
2023-01-20T14:13:51.183Z,9.35
2023-01-20T14:16:37.532Z,9.19
2023-01-20T14:19:32.622Z,9.02
2023-01-20T14:22:05.912Z,8.83
2023-01-20T14:24:38.251Z,8.70
2023-01-20T14:27:07.832Z,8.61
2023-01-20T14:29:35.542Z,8.52
2023-01-20T14:32:22.252Z,8.42
2023-01-20T14:34:50.830Z,8.31
2023-01-20T14:37:21.649Z,8.23
2023-01-20T14:39:49.780Z,8.14
2023-01-20T14:42:18.901Z,8.05
2023-01-20T14:44:51.021Z,7.95
2023-01-20T14:47:19.497Z,7.85
2023-01-20T14:49:51.558Z,7.73
2023-01-20T14:52:30.147Z,7.64
2023-01-20T14:54:58.015Z,7.58
2023-01-20T14:57:26.815Z,7.51
2023-01-20T15:00:16.564Z,7.41
2023-01-20T15:03:11.019Z,7.28
2023-01-20T15:05:41.500Z,7.12
2023-01-20T15:08:12.157Z,6.97
2023-01-20T15:10:39.899Z,6.83
2023-01-20T15:13:27.064Z,6.67
2023-01-20T15:16:17.095Z,6.55
2023-01-20T15:19:05.338Z,6.44
2023-01-20T15:21:37.964Z,6.34
2023-01-20T15:24:19.612Z,6.24
2023-01-20T15:26:49.419Z,6.12
2023-01-20T15:29:26.895Z,6.00
2023-01-20T15:31:55.538Z,5.85
2023-01-20T15:34:23.285Z,5.73
2023-01-20T15:36:52.089Z,5.64
2023-01-20T15:39:21.189Z,5.56
2023-01-20T15:41:54.332Z,5.48
2023-01-20T15:44:22.423Z,5.39
2023-01-20T15:46:50.203Z,5.30
2023-01-20T15:49:18.219Z,5.25
2023-01-20T15:51:46.040Z,5.19
2023-01-20T15:54:16.530Z,5.14
2023-01-20T15:56:44.201Z,5.07
2023-01-20T15:59:20.112Z,4.99
2023-01-20T16:01:50.348Z,4.93
2023-01-20T16:04:18.134Z,4.88
2023-01-20T16:06:45.892Z,4.82
2023-01-20T16:09:19.804Z,4.76
2023-01-20T16:11:48.178Z,4.70
2023-01-20T16:14:16.254Z,4.67
2023-01-20T16:16:44.117Z,4.64
2023-01-20T16:19:14.759Z,4.60
2023-01-20T16:21:45.250Z,4.58
2023-01-20T16:24:13.270Z,4.58
2023-01-20T16:26:41.031Z,4.54
2023-01-20T16:29:09.401Z,4.51
2023-01-20T16:31:37.008Z,4.45
2023-01-20T16:34:05.334Z,4.40
2023-01-20T20:14:06.848Z,2.56
2023-01-20T20:16:35.954Z,2.68
2023-01-20T20:19:04.642Z,2.67
2023-01-20T20:21:32.390Z,2.67
2023-01-20T20:24:00.785Z,2.67
2023-01-20T20:26:30.414Z,2.68
2023-01-20T20:29:01.861Z,2.70
2023-01-20T20:31:30.071Z,2.73
2023-01-20T20:33:59.189Z,2.75
2023-01-20T20:36:31.293Z,2.75
2023-01-20T20:38:59.716Z,2.75
2023-01-20T20:41:29.416Z,2.75
2023-01-20T20:44:01.216Z,2.75
2023-01-20T20:46:30.220Z,2.77
2023-01-20T20:49:01.992Z,2.77
2023-01-20T20:51:33.890Z,2.78
2023-01-20T20:54:02.787Z,2.80
2023-01-20T20:56:34.960Z,2.83
2023-01-20T20:59:04.577Z,2.87
2023-01-20T21:01:35.008Z,2.90
2023-01-20T21:04:03.585Z,2.91
2023-01-20T21:06:31.422Z,2.95
2023-01-20T21:08:59.638Z,2.95
2023-01-20T21:11:27.761Z,2.98
2023-01-20T21:13:55.886Z,2.99
2023-01-20T21:16:24.051Z,3.01
2023-01-20T21:18:53.543Z,3.02
2023-01-20T21:21:21.515Z,3.01
2023-01-20T21:23:57.091Z,3.02
2023-01-20T21:26:27.068Z,3.02
2023-01-20T21:28:56.562Z,3.04
2023-01-20T21:31:27.631Z,3.05
2023-01-20T21:33:55.663Z,3.08
2023-01-20T21:36:23.429Z,3.08
2023-01-20T21:38:51.069Z,3.09
2023-01-20T21:41:18.815Z,3.10
2023-01-20T21:44:06.340Z,3.11
2023-01-20T21:46:39.198Z,3.13
2023-01-20T21:49:29.093Z,3.15
2023-01-20T21:52:14.879Z,3.16
2023-01-20T21:54:42.714Z,3.18
2023-01-20T21:57:09.768Z,3.19
2023-01-20T21:59:37.315Z,3.19
2023-01-20T22:02:05.274Z,3.21
2023-01-20T22:04:34.333Z,3.23
2023-01-20T22:07:01.555Z,3.26
2023-01-20T22:09:28.464Z,3.30
2023-01-20T22:11:55.539Z,3.33
2023-01-20T22:14:22.894Z,3.37
2023-01-20T22:16:50.421Z,3.41
2023-01-20T22:19:17.820Z,3.44
2023-01-20T22:21:45.536Z,3.43
2023-01-20T22:24:12.713Z,3.43
2023-01-20T22:26:40.572Z,3.43
2023-01-20T22:29:08.125Z,3.44
2023-01-20T22:31:35.938Z,3.43
2023-01-20T22:34:05.428Z,3.41
2023-01-20T22:36:52.609Z,3.41
2023-01-20T22:39:20.484Z,3.42
2023-01-20T22:41:48.171Z,3.40
2023-01-20T22:44:16.020Z,3.39
2023-01-20T22:46:43.673Z,3.40
2023-01-20T22:49:11.331Z,3.37
2023-01-20T22:51:38.748Z,3.35
2023-01-20T22:54:07.747Z,3.35
2023-01-20T22:56:36.055Z,3.35
2023-01-20T22:59:03.842Z,3.34
2023-01-20T23:01:35.311Z,3.32
2023-01-20T23:04:05.483Z,3.31
2023-01-20T23:06:34.707Z,3.30
2023-01-20T23:09:04.676Z,3.32
2023-01-20T23:11:32.716Z,3.33
2023-01-20T23:14:00.953Z,3.33
2023-01-20T23:16:28.548Z,3.30
2023-01-20T23:18:56.184Z,3.28
2023-01-20T23:21:24.651Z,3.28
2023-01-20T23:23:55.144Z,3.26
2023-01-20T23:26:24.610Z,3.24
2023-01-20T23:28:53.841Z,3.22
2023-01-20T23:31:22.990Z,3.20
2023-01-20T23:33:50.666Z,3.19
2023-01-20T23:36:20.805Z,3.15
2023-01-20T23:38:48.671Z,3.10
2023-01-20T23:41:16.288Z,3.08
2023-01-20T23:43:43.935Z,3.09
2023-01-20T23:46:12.852Z,3.08
2023-01-20T23:48:40.703Z,3.06
2023-01-20T23:51:08.224Z,3.07
2023-01-20T23:53:37.808Z,3.09
2023-01-20T23:56:07.287Z,3.09
2023-01-20T23:58:34.957Z,3.09
